createdAt,value
2022-08-25T00:00:30.868Z,14.10
2022-08-25T00:03:13.901Z,13.20
2022-08-25T00:05:43.117Z,13.60
2022-08-25T00:08:11.877Z,13.70
2022-08-25T00:10:41.861Z,11.80
2022-08-25T00:13:10.805Z,12.80
2022-08-25T00:15:39.376Z,13.40
2022-08-25T00:18:19.980Z,12.40
2022-08-25T00:20:49.323Z,9.00
2022-08-25T00:23:18.417Z,11.20
2022-08-25T00:25:47.262Z,9.90
2022-08-25T00:28:16.348Z,9.20
2022-08-25T00:30:45.602Z,9.70
2022-08-25T00:33:14.425Z,8.40
2022-08-25T00:35:43.611Z,8.60
2022-08-25T00:38:13.421Z,9.90
2022-08-25T00:40:43.441Z,9.60
2022-08-25T00:43:13.304Z,8.80
2022-08-25T00:45:42.145Z,9.90
2022-08-25T00:48:10.924Z,8.80
2022-08-25T00:50:39.867Z,9.80
2022-08-25T00:53:09.247Z,9.20
2022-08-25T00:55:41.600Z,9.20
2022-08-25T00:58:17.890Z,10.30
2022-08-25T01:00:49.214Z,9.20
2022-08-25T01:03:19.260Z,10.00
2022-08-25T01:05:49.195Z,10.30
2022-08-25T01:08:20.538Z,9.90
2022-08-25T01:10:50.413Z,10.80
2022-08-25T01:13:26.118Z,9.90
2022-08-25T01:15:56.499Z,8.90
2022-08-25T01:18:26.697Z,9.50
2022-08-25T01:20:57.016Z,9.40
2022-08-25T01:23:26.273Z,9.90
2022-08-25T01:26:01.843Z,8.60
2022-08-25T01:28:30.759Z,8.70
2022-08-25T01:30:59.837Z,8.20
2022-08-25T01:33:28.838Z,8.20
2022-08-25T01:35:57.282Z,7.90
2022-08-25T01:38:26.084Z,8.10
2022-08-25T01:40:54.830Z,8.80
2022-08-25T01:43:36.324Z,8.10
2022-08-25T01:46:05.423Z,8.50
2022-08-25T01:48:34.172Z,9.40
2022-08-25T01:51:02.917Z,9.00
2022-08-25T01:53:33.676Z,9.60
2022-08-25T01:56:11.091Z,10.10
2022-08-25T01:58:43.599Z,9.30
2022-08-25T02:01:15.400Z,10.00
2022-08-25T02:03:47.178Z,9.20
2022-08-25T02:06:21.733Z,9.60
2022-08-25T02:09:01.066Z,9.80
2022-08-25T02:11:30.893Z,9.70
2022-08-25T02:14:00.387Z,9.20
2022-08-25T02:16:31.553Z,9.50
2022-08-25T02:19:00.613Z,9.60
2022-08-25T02:21:29.813Z,9.30
2022-08-25T02:23:58.846Z,9.20
2022-08-25T02:26:28.720Z,10.00
2022-08-25T02:28:57.430Z,9.30
2022-08-25T02:31:26.386Z,9.30
2022-08-25T02:33:55.069Z,9.40
2022-08-25T02:36:26.302Z,9.10
2022-08-25T02:38:55.096Z,9.00
2022-08-25T02:41:28.855Z,8.90
2022-08-25T02:44:02.007Z,9.30
2022-08-25T02:46:30.979Z,10.50
2022-08-25T02:48:59.527Z,9.90
2022-08-25T02:51:29.416Z,9.30
2022-08-25T02:53:59.059Z,10.30
2022-08-25T02:56:28.509Z,9.10
2022-08-25T02:58:57.670Z,9.50
2022-08-25T03:01:28.794Z,8.90
2022-08-25T03:03:58.273Z,8.30
2022-08-25T03:06:27.478Z,8.50
2022-08-25T03:08:56.623Z,9.20
2022-08-25T03:11:27.596Z,9.00
2022-08-25T03:13:56.374Z,8.20
2022-08-25T03:16:27.704Z,9.00
2022-08-25T03:21:25.059Z,8.70
2022-08-25T03:23:53.793Z,8.60
2022-08-25T03:26:55.588Z,9.70
2022-08-25T03:29:29.078Z,10.00
2022-08-25T03:31:59.175Z,9.10
2022-08-25T03:34:58.452Z,9.60
2022-08-25T03:37:27.056Z,9.90
2022-08-25T03:39:56.101Z,10.10
2022-08-25T03:42:25.838Z,9.80
2022-08-25T03:44:55.427Z,9.30
2022-08-25T03:47:25.785Z,10.20
2022-08-25T03:49:54.590Z,10.10
2022-08-25T03:52:23.338Z,9.60
2022-08-25T03:54:52.436Z,9.90
2022-08-25T03:57:21.027Z,10.20
2022-08-25T03:59:49.882Z,10.20
2022-08-25T04:02:18.723Z,10.70
2022-08-25T04:04:47.660Z,9.80
2022-08-25T04:07:17.105Z,10.10
2022-08-25T04:09:45.964Z,10.50
2022-08-25T04:12:14.494Z,10.10
2022-08-25T04:14:43.437Z,10.00
2022-08-25T04:17:12.048Z,9.70
2022-08-25T04:19:40.705Z,8.80
2022-08-25T04:22:09.359Z,8.50
2022-08-25T04:24:38.213Z,8.30
2022-08-25T04:27:06.956Z,8.80
2022-08-25T04:29:35.813Z,9.10
2022-08-25T04:32:05.093Z,9.00
2022-08-25T04:34:33.778Z,8.80
2022-08-25T04:37:05.676Z,8.30
2022-08-25T04:42:02.584Z,8.80
2022-08-25T04:44:33.588Z,9.10
2022-08-25T04:47:02.777Z,9.20
2022-08-25T04:49:31.623Z,8.30
2022-08-25T04:52:00.736Z,8.30
2022-08-25T04:54:29.572Z,8.70
2022-08-25T04:57:06.223Z,8.60
2022-08-25T04:59:37.619Z,8.70
2022-08-25T05:02:06.567Z,9.70
2022-08-25T05:04:37.127Z,9.00
2022-08-25T05:07:06.672Z,9.40
2022-08-25T05:09:37.094Z,10.00
2022-08-25T05:12:06.856Z,9.30
2022-08-25T05:14:35.664Z,8.80
2022-08-25T05:17:04.353Z,9.00
2022-08-25T05:19:33.569Z,9.70
2022-08-25T05:22:02.599Z,9.90
2022-08-25T05:24:31.230Z,10.30
2022-08-25T05:27:00.255Z,11.50
2022-08-25T05:29:29.138Z,10.50
2022-08-25T05:31:58.223Z,9.00
2022-08-25T05:34:26.652Z,10.90
2022-08-25T05:36:59.602Z,10.20
2022-08-25T05:39:31.777Z,10.80
2022-08-25T05:42:00.449Z,10.80
2022-08-25T05:44:30.840Z,10.10
2022-08-25T05:47:04.157Z,12.40
2022-08-25T05:49:32.714Z,14.70
2022-08-25T05:52:01.441Z,14.90
2022-08-25T05:54:31.071Z,13.70
2022-08-25T05:56:59.946Z,13.50
2022-08-25T05:59:29.586Z,13.30
2022-08-25T06:02:16.650Z,12.00
2022-08-25T06:04:45.749Z,13.80
2022-08-25T06:07:14.522Z,10.90
2022-08-25T06:09:45.847Z,10.90
2022-08-25T06:12:14.931Z,10.60
2022-08-25T06:14:44.586Z,11.40
2022-08-25T06:17:13.083Z,12.60
2022-08-25T06:19:41.777Z,12.10
2022-08-25T06:22:10.878Z,13.70
2022-08-25T06:24:39.508Z,15.00
2022-08-25T06:27:08.447Z,15.30
2022-08-25T06:29:37.048Z,15.50
2022-08-25T06:32:07.274Z,13.50
2022-08-25T06:34:36.034Z,14.80
2022-08-25T06:37:05.045Z,17.00
2022-08-25T06:39:33.865Z,17.40
2022-08-25T06:42:02.581Z,15.70
2022-08-25T06:44:31.780Z,14.20
2022-08-25T06:47:00.743Z,15.10
2022-08-25T06:49:31.914Z,13.40
2022-08-25T06:52:02.123Z,13.30
2022-08-25T06:54:30.908Z,11.60
2022-08-25T06:57:00.141Z,14.70
2022-08-25T06:59:32.288Z,13.10
2022-08-25T07:02:03.177Z,14.30
2022-08-25T07:04:32.999Z,12.90
2022-08-25T07:07:02.174Z,13.70
2022-08-25T07:09:31.483Z,11.40
2022-08-25T07:12:01.959Z,13.50
2022-08-25T07:14:30.676Z,14.60
2022-08-25T07:16:59.406Z,12.90
2022-08-25T07:19:28.152Z,14.10
2022-08-25T07:21:56.641Z,12.60
2022-08-25T07:24:25.617Z,14.90
2022-08-25T07:26:54.432Z,12.80
2022-08-25T07:29:31.901Z,11.80
2022-08-25T07:32:03.513Z,11.60
2022-08-25T07:34:51.912Z,12.20
2022-08-25T07:40:14.927Z,13.10
2022-08-25T07:42:43.672Z,11.00
2022-08-25T07:45:13.915Z,11.30
2022-08-25T07:47:45.784Z,11.30
2022-08-25T07:50:14.735Z,9.60
2022-08-25T07:52:43.290Z,9.50
2022-08-25T07:55:12.442Z,9.40
2022-08-25T07:57:49.865Z,9.60
2022-08-25T08:00:26.890Z,8.80
2022-08-25T08:02:56.046Z,8.20
2022-08-25T08:05:27.697Z,9.50
2022-08-25T08:13:18.012Z,7.40
2022-08-25T08:15:47.855Z,6.50
2022-08-25T08:18:16.637Z,8.50
2022-08-25T08:20:46.462Z,8.40
2022-08-25T08:23:15.826Z,6.80
2022-08-25T08:25:44.446Z,6.80
2022-08-25T08:28:13.672Z,8.90
2022-08-25T08:30:53.387Z,8.40
2022-08-25T08:33:25.991Z,7.80
2022-08-25T08:36:05.284Z,7.40
2022-08-25T08:38:35.078Z,7.70
2022-08-25T08:42:07.697Z,5.50
2022-08-25T08:44:49.850Z,6.20
2022-08-25T08:47:31.138Z,5.80
2022-08-25T08:52:52.517Z,5.70
2022-08-25T08:55:28.133Z,5.90
2022-08-25T08:58:00.551Z,5.60
2022-08-25T09:00:31.271Z,5.30
2022-08-25T09:03:05.143Z,5.50
2022-08-25T09:05:46.780Z,5.00
2022-08-25T09:08:20.516Z,5.30
2022-08-25T09:11:01.817Z,5.90
2022-08-25T09:13:45.591Z,5.00
2022-08-25T09:16:38.446Z,4.40
2022-08-25T09:19:24.533Z,4.20
2022-08-25T09:21:57.860Z,4.20
2022-08-25T09:24:45.238Z,4.10
2022-08-25T09:27:24.165Z,4.90
2022-08-25T09:30:05.517Z,4.80
2022-08-25T09:32:39.102Z,4.70
2022-08-25T09:35:15.086Z,4.60
2022-08-25T09:37:54.640Z,4.50
2022-08-25T09:40:23.958Z,4.90
2022-08-25T09:42:57.880Z,4.60
2022-08-25T09:45:40.131Z,4.90
2022-08-25T09:48:26.909Z,4.80
2022-08-25T09:51:01.809Z,4.80
2022-08-25T09:53:33.818Z,5.30
2022-08-25T09:56:06.910Z,4.80
2022-08-25T09:58:35.422Z,5.20
2022-08-25T10:01:14.053Z,5.20
2022-08-25T10:03:59.593Z,4.70
2022-08-25T10:06:34.013Z,4.50
2022-08-25T10:09:07.061Z,5.70
2022-08-25T10:11:41.617Z,5.10
2022-08-25T10:14:27.367Z,5.50
2022-08-25T10:17:14.359Z,5.20
2022-08-25T10:19:43.404Z,4.90
2022-08-25T10:22:20.759Z,4.80
2022-08-25T10:24:49.644Z,5.10
2022-08-25T10:27:30.893Z,5.70
2022-08-25T10:33:02.834Z,5.60
2022-08-25T10:35:39.462Z,5.50
2022-08-25T10:38:27.274Z,5.90
2022-08-25T10:41:09.414Z,5.70
2022-08-25T10:43:45.516Z,5.50
2022-08-25T10:46:27.466Z,5.50
2022-08-25T10:49:13.189Z,5.50
2022-08-25T10:52:00.488Z,6.10
2022-08-25T10:54:46.532Z,5.30
2022-08-25T10:57:22.024Z,6.50
2022-08-25T11:00:00.569Z,5.60
2022-08-25T11:03:11.171Z,5.50
2022-08-25T11:05:46.004Z,5.60
2022-08-25T11:08:24.984Z,5.30
2022-08-25T11:10:59.859Z,6.20
2022-08-25T11:13:37.405Z,5.10
2022-08-25T11:16:17.621Z,5.90
2022-08-25T11:18:53.118Z,5.50
2022-08-25T11:21:26.897Z,5.70
2022-08-25T11:24:05.139Z,6.20
2022-08-25T11:26:37.747Z,5.30
2022-08-25T11:29:16.035Z,5.10
2022-08-25T11:31:52.833Z,5.90
2022-08-25T11:34:22.838Z,5.80
2022-08-25T11:36:57.005Z,6.50
2022-08-25T11:39:40.214Z,5.60
2022-08-25T11:42:25.893Z,5.80
2022-08-25T11:45:08.603Z,6.60
2022-08-25T11:48:09.543Z,6.00
2022-08-25T11:50:57.757Z,6.20
2022-08-25T11:53:28.984Z,5.50
2022-08-25T11:56:03.730Z,5.00
2022-08-25T11:58:38.097Z,5.30
2022-08-25T12:01:11.303Z,6.00
2022-08-25T12:04:14.836Z,5.30
2022-08-25T12:07:18.377Z,5.80
2022-08-25T12:10:24.906Z,5.60
2022-08-25T12:13:37.422Z,6.30
2022-08-25T12:16:07.103Z,5.80
2022-08-25T12:18:45.877Z,5.80
2022-08-25T12:21:29.976Z,5.80
2022-08-25T12:24:12.721Z,5.40
2022-08-25T12:26:51.363Z,5.90
2022-08-25T12:29:30.132Z,5.60
2022-08-25T12:32:22.641Z,6.50
2022-08-25T12:35:21.791Z,5.50
2022-08-25T12:38:03.981Z,6.60
2022-08-25T12:40:37.028Z,5.60
2022-08-25T12:43:09.781Z,5.70
2022-08-25T12:45:45.419Z,5.60
2022-08-25T12:49:04.321Z,6.30
2022-08-25T12:51:53.842Z,6.20
2022-08-25T12:54:32.422Z,6.20
2022-08-25T12:57:14.312Z,6.00
2022-08-25T12:59:49.630Z,6.60
2022-08-25T13:02:52.001Z,6.30
2022-08-25T13:05:47.326Z,5.90
2022-08-25T13:08:46.609Z,6.70
2022-08-25T13:11:30.736Z,5.80
2022-08-25T13:14:07.813Z,6.00
2022-08-25T13:16:39.082Z,7.30
2022-08-25T13:19:18.416Z,5.60
2022-08-25T13:21:48.405Z,6.30
2022-08-25T13:24:22.297Z,6.10
2022-08-25T13:26:55.203Z,6.20
2022-08-25T13:29:27.244Z,7.20
2022-08-25T13:31:59.350Z,6.70
2022-08-25T13:34:34.833Z,6.90
2022-08-25T13:37:27.655Z,6.20
2022-08-25T13:40:10.988Z,5.70
2022-08-25T13:42:42.515Z,5.70
2022-08-25T13:45:17.066Z,5.90
2022-08-25T13:47:47.668Z,5.90
2022-08-25T13:50:28.778Z,6.40
2022-08-25T13:52:59.707Z,6.60
2022-08-25T13:55:38.409Z,6.50
2022-08-25T13:58:24.809Z,6.70
2022-08-25T14:01:19.963Z,5.30
2022-08-25T14:04:17.514Z,5.90
2022-08-25T14:06:47.594Z,6.20
2022-08-25T14:09:27.987Z,6.20
2022-08-25T14:11:58.023Z,7.20
2022-08-25T14:14:35.377Z,5.50
2022-08-25T14:17:22.144Z,5.70
2022-08-25T14:20:00.304Z,6.40
2022-08-25T14:22:45.912Z,5.90
2022-08-25T14:25:15.456Z,6.20
2022-08-25T14:28:10.938Z,6.20
2022-08-25T14:30:52.273Z,5.90
2022-08-25T14:33:24.913Z,6.90
2022-08-25T14:35:57.682Z,6.40
2022-08-25T14:38:31.192Z,6.40
2022-08-25T14:41:00.730Z,6.90
2022-08-25T14:43:31.750Z,6.00
2022-08-25T14:46:03.236Z,6.00
2022-08-25T14:51:04.851Z,6.80
2022-08-25T14:53:34.637Z,5.70
2022-08-25T14:56:08.640Z,5.90
2022-08-25T14:58:50.968Z,7.00
2022-08-25T15:01:29.206Z,6.50
2022-08-25T15:04:07.349Z,5.60
2022-08-25T15:06:38.845Z,7.00
2022-08-25T15:09:10.780Z,6.00
2022-08-25T15:11:44.494Z,6.20
2022-08-25T15:14:15.738Z,6.40
2022-08-25T15:16:49.616Z,6.80
2022-08-25T15:19:20.445Z,7.20
2022-08-25T15:21:50.678Z,6.30
2022-08-25T15:24:22.440Z,6.40
2022-08-25T15:26:55.486Z,6.50
2022-08-25T15:29:26.733Z,6.70
2022-08-25T15:31:55.664Z,6.20
2022-08-25T15:34:24.542Z,5.70
2022-08-25T15:36:53.466Z,6.20
2022-08-25T15:39:22.372Z,6.50
2022-08-25T15:41:51.758Z,6.20
2022-08-25T15:44:21.295Z,6.90
2022-08-25T15:46:50.449Z,6.70
2022-08-25T15:49:23.107Z,6.30
2022-08-25T15:51:53.214Z,6.40
2022-08-25T15:54:26.843Z,6.30
2022-08-25T15:56:56.540Z,5.60
2022-08-25T15:59:26.350Z,6.10
2022-08-25T16:01:58.699Z,5.40
2022-08-25T16:04:28.773Z,6.60
2022-08-25T16:06:58.694Z,6.00
2022-08-25T16:09:27.220Z,5.90
2022-08-25T16:11:58.996Z,6.20
2022-08-25T16:14:31.331Z,5.30
2022-08-25T16:17:00.024Z,5.00
2022-08-25T16:19:29.236Z,6.00
2022-08-25T16:21:58.469Z,5.60
2022-08-25T16:24:28.463Z,6.40
2022-08-25T16:27:11.403Z,6.10
2022-08-25T16:29:42.211Z,5.80
2022-08-25T16:32:13.317Z,6.00
2022-08-25T16:37:11.030Z,6.60
2022-08-25T16:39:43.518Z,12.90
2022-08-25T16:42:12.513Z,6.50
2022-08-25T16:44:42.204Z,6.10
2022-08-25T16:47:13.975Z,5.70
2022-08-25T16:52:30.708Z,6.20
2022-08-25T16:55:15.911Z,5.70
2022-08-25T16:57:47.925Z,5.80
2022-08-25T17:02:45.826Z,6.40
2022-08-25T17:05:14.816Z,6.10
2022-08-25T17:08:03.691Z,6.00
2022-08-25T17:10:36.208Z,6.80
2022-08-25T17:13:05.625Z,7.40
2022-08-25T17:15:34.813Z,6.40
2022-08-25T17:18:04.665Z,6.40
2022-08-25T17:20:34.665Z,5.70
2022-08-25T17:23:12.103Z,6.60
2022-08-25T17:25:43.316Z,6.80
2022-08-25T17:28:12.980Z,7.00
2022-08-25T17:30:42.577Z,6.30
2022-08-25T17:33:11.507Z,5.90
2022-08-25T17:35:40.727Z,7.40
2022-08-25T17:38:10.560Z,6.40
2022-08-25T17:40:40.431Z,6.70
2022-08-25T17:43:09.848Z,6.90
2022-08-25T17:45:39.607Z,7.00
2022-08-25T17:48:09.074Z,7.20
2022-08-25T17:50:38.902Z,6.50
2022-08-25T17:53:09.291Z,7.40
2022-08-25T17:55:39.783Z,7.80
2022-08-25T17:58:16.095Z,7.20
2022-08-25T18:00:46.469Z,7.30
2022-08-25T18:03:15.236Z,6.90
2022-08-25T18:05:45.068Z,7.80
2022-08-25T18:08:15.807Z,7.20
2022-08-25T18:10:49.973Z,7.00
2022-08-25T18:13:19.459Z,7.60
2022-08-25T18:16:09.450Z,7.80
2022-08-25T18:18:39.316Z,7.00
2022-08-25T18:21:16.827Z,7.90
2022-08-25T18:23:58.436Z,7.60
2022-08-25T18:26:27.698Z,7.30
2022-08-25T18:29:05.959Z,8.50
2022-08-25T18:31:37.041Z,7.70
2022-08-25T18:34:10.347Z,7.80
2022-08-25T18:36:43.612Z,8.70
2022-08-25T18:39:34.904Z,8.20
2022-08-25T18:42:08.066Z,7.70
2022-08-25T18:44:36.800Z,7.60
2022-08-25T18:47:07.565Z,7.30
2022-08-25T18:49:36.850Z,7.80
2022-08-25T18:52:06.509Z,7.30
2022-08-25T18:57:39.935Z,7.30
2022-08-25T19:00:18.868Z,7.80
2022-08-25T19:03:18.972Z,7.70
2022-08-25T19:06:16.083Z,7.30
2022-08-25T19:12:46.593Z,7.60
2022-08-25T19:16:10.747Z,8.20
2022-08-25T19:18:54.022Z,9.00
2022-08-25T19:21:38.014Z,7.90
2022-08-25T19:24:08.954Z,8.00
2022-08-25T19:26:47.312Z,8.20
2022-08-25T19:29:23.215Z,7.10
2022-08-25T19:32:06.686Z,8.20
2022-08-25T19:34:42.114Z,7.80
2022-08-25T19:37:14.659Z,7.80
2022-08-25T19:39:53.008Z,7.80
2022-08-25T19:42:34.969Z,7.50
2022-08-25T19:45:15.425Z,8.10
2022-08-25T19:47:45.462Z,8.50
2022-08-25T19:50:16.920Z,8.40
2022-08-25T19:55:14.525Z,8.10
2022-08-25T19:57:43.841Z,8.00
2022-08-25T20:00:16.922Z,9.00
2022-08-25T20:02:46.986Z,7.90
2022-08-25T20:05:23.570Z,8.90
2022-08-25T20:07:54.099Z,7.50
2022-08-25T20:10:24.310Z,7.80
2022-08-25T20:12:55.541Z,8.10
2022-08-25T20:15:25.467Z,8.70
2022-08-25T20:17:56.561Z,9.00
2022-08-25T20:20:32.641Z,8.70
2022-08-25T20:23:21.837Z,8.90
2022-08-25T20:25:51.487Z,8.40
2022-08-25T20:28:20.233Z,9.50
2022-08-25T20:30:48.997Z,9.40
2022-08-25T20:33:22.823Z,9.20
2022-08-25T20:35:53.062Z,9.00
2022-08-25T20:38:21.785Z,9.30
2022-08-25T20:40:50.509Z,9.90
2022-08-25T20:43:20.775Z,9.20
2022-08-25T20:45:49.772Z,9.10
2022-08-25T20:48:18.411Z,9.50
2022-08-25T20:50:57.390Z,9.70
2022-08-25T20:53:26.848Z,10.10
2022-08-25T20:55:55.741Z,10.20
2022-08-25T20:58:24.133Z,9.50
2022-08-25T21:00:55.424Z,11.40
2022-08-25T21:03:24.731Z,10.20
2022-08-25T21:05:54.050Z,10.10
2022-08-25T21:08:23.752Z,11.10
2022-08-25T21:10:54.204Z,10.50
2022-08-25T21:13:22.930Z,10.40
2022-08-25T21:15:51.582Z,9.60
2022-08-25T21:18:20.547Z,11.20
2022-08-25T21:20:49.100Z,10.60
2022-08-25T21:23:17.680Z,10.40
2022-08-25T21:25:46.497Z,10.40
2022-08-25T21:28:15.174Z,9.40
2022-08-25T21:30:44.797Z,10.30
2022-08-25T21:33:16.061Z,10.40
2022-08-25T21:35:44.712Z,10.00
2022-08-25T21:38:15.902Z,9.50
2022-08-25T21:40:45.058Z,9.40
2022-08-25T21:43:13.812Z,8.80
2022-08-25T21:45:46.851Z,9.70
2022-08-25T21:48:16.101Z,9.40
2022-08-25T21:50:44.926Z,9.40
2022-08-25T21:53:13.717Z,9.10
2022-08-25T21:55:43.863Z,9.40
2022-08-25T21:58:12.532Z,10.00
2022-08-25T22:00:44.252Z,9.50
2022-08-25T22:04:02.396Z,8.90
2022-08-25T22:06:31.781Z,9.30
2022-08-25T22:09:00.890Z,10.00
2022-08-25T22:11:29.408Z,9.70
2022-08-25T22:14:06.055Z,9.00
2022-08-25T22:16:36.710Z,10.60
2022-08-25T22:19:07.672Z,8.50
2022-08-25T22:21:41.294Z,9.30
2022-08-25T22:24:10.517Z,9.30
2022-08-25T22:26:40.196Z,9.00
2022-08-25T22:29:09.351Z,9.80
2022-08-25T22:31:38.675Z,10.20
2022-08-25T22:34:07.920Z,9.80
2022-08-25T22:36:38.339Z,10.00
2022-08-25T22:41:36.552Z,10.00
2022-08-25T22:44:10.454Z,9.40
2022-08-25T22:46:39.034Z,8.80
2022-08-25T22:49:08.351Z,9.80
2022-08-25T22:51:37.311Z,8.70
2022-08-25T22:54:06.398Z,11.00
2022-08-25T22:56:39.158Z,9.50
2022-08-25T22:59:10.568Z,10.90
2022-08-25T23:04:08.863Z,9.90
2022-08-25T23:06:40.129Z,9.80
2022-08-25T23:09:10.232Z,10.10
2022-08-25T23:11:39.468Z,9.60
2022-08-25T23:14:10.428Z,10.00
2022-08-25T23:16:41.912Z,9.40
2022-08-25T23:19:13.788Z,10.00
2022-08-25T23:24:30.752Z,10.70
2022-08-25T23:27:01.488Z,9.30
2022-08-25T23:29:31.383Z,9.40
2022-08-25T23:32:00.154Z,9.80
2022-08-25T23:34:29.293Z,9.90
2022-08-25T23:36:58.405Z,9.30
2022-08-25T23:39:27.256Z,11.30
2022-08-25T23:41:55.950Z,9.90
2022-08-25T23:44:25.678Z,10.80
2022-08-25T23:46:54.902Z,10.20
2022-08-25T23:49:24.355Z,10.60
2022-08-25T23:51:55.038Z,10.80
2022-08-25T23:54:31.446Z,9.90
2022-08-25T23:57:00.451Z,10.20
2022-08-25T23:59:30.352Z,10.20
